Flight Track Log - Related Links

Times and Time Zones

All times are in EDT time to prevent confusion due to time zone crossing. See the N45BB flight status page for this flight to view local times or setup timezone preferences in your user account.


Time Position Orientation Groundspeed Altitude Reporting Facility
EDT Latitude Longitude Course Direction KTS MPH feet Rate Location/Type
Wed 05:53:52 PM 41.9167 -88.2500 270° West 122 140 1,800  Level Chicago TRACON
Wed 05:54:52 PM 41.9167 -88.2833 270° West 132 152 2,900 700 Climbing Chicago TRACON
Wed 05:55:52 PM 41.8667 -88.2667 166° South 161 185 3,200 220 Climbing Chicago TRACON
Wed 05:56:14 PM 41.8556 -88.2717 199° South 141 162 3,200 -143 Level Chicago Center
Wed 05:57:16 PM 41.8036 -88.2686 177° South 168 193 3,000  Descending Chicago Center
Wed 05:58:18 PM 41.7564 -88.2453 160° South 178 205 3,200 576 Climbing Chicago Center
Wed 05:59:21 PM 41.7161 -88.2247 159° South 168 193 4,200 823 Climbing Chicago Center
Wed 06:00:22 PM 41.6800 -88.2031 156° South 151 174 4,900 439 Climbing Chicago Center
Wed 06:01:24 PM 41.6328 -88.1761 157° South 151 174 5,100 144 Climbing Chicago Center
Wed 06:02:27 PM 41.5944 -88.1336 140° Southeast 169 194 5,200 576 Climbing Chicago Center
Wed 06:03:29 PM 41.5614 -88.0994 142° Southeast 159 183 6,300 919 Climbing Chicago Center
Wed 06:04:31 PM 41.5322 -88.0656 139° Southeast 144 166 7,100 629 Climbing Chicago Center
Wed 06:05:33 PM 41.4986 -88.0267 139° Southeast 155 178 7,600 629 Climbing Chicago Center
Wed 06:06:35 PM 41.4614 -87.9864 141° Southeast 167 192 8,400 871 Climbing Chicago Center
Wed 06:07:37 PM 41.4169 -87.9403 142° Southeast 166 191 9,400 871 Climbing Chicago Center
Wed 06:08:39 PM 41.3792 -87.8978 140° Southeast 176 203 10,200 823 Climbing Chicago Center
Wed 06:09:41 PM 41.3431 -87.8556 139° Southeast 173 199 11,100 823 Climbing Chicago Center
Wed 06:10:43 PM 41.3064 -87.8150 140° Southeast 172 198 11,900 768 Climbing Chicago Center
Wed 06:11:46 PM 41.2675 -87.7747 142° Southeast 175 201 12,700 768 Climbing Chicago Center
Wed 06:12:48 PM 41.2208 -87.7639 170° South 173 199 13,500 871 Climbing Chicago Center
Wed 06:13:50 PM 41.1656 -87.7558 174° South 169 194 14,500 726 Climbing Chicago Center
Wed 06:14:52 PM 41.1186 -87.7492 174° South 169 194 15,000 242 Climbing Chicago Center
Wed 06:15:54 PM 41.0642 -87.7403 173° South 191 220 15,000  Level Chicago Center
Wed 06:16:56 PM 41.0103 -87.7281 170° South 196 226 15,000  Level Chicago Center
Wed 06:17:58 PM 40.9583 -87.7153 169° South 193 222 15,000  Level Chicago Center
Wed 06:19:00 PM 40.8956 -87.6978 168° South 193 222 15,000  Level Chicago Center
Wed 06:20:02 PM 40.8428 -87.6847 169° South 193 222 15,000  Level Chicago Center
Wed 06:21:04 PM 40.7900 -87.6708 169° South 195 224 15,000 -48 Level Chicago Center
Wed 06:22:07 PM 40.7375 -87.6569 169° South 194 223 14,900  Descending Chicago Center
Wed 06:23:09 PM 40.6872 -87.6422 167° South 189 217 15,000  Climbing Chicago Center
Wed 06:24:11 PM 40.6236 -87.6225 167° South 196 226 14,900 -48 Descending Chicago Center
Wed 06:25:13 PM 40.5708 -87.6114 171° South 195 224 14,900  Level Chicago Center
Wed 06:26:15 PM 40.5169 -87.5983 170° South 197 227 14,900 48 Level Chicago Center
Wed 06:27:17 PM 40.4647 -87.5856 169° South 194 223 15,000 48 Climbing Chicago Center
Wed 06:28:19 PM 40.4131 -87.5725 169° South 191 220 15,000  Level Chicago Center
Wed 06:29:21 PM 40.3511 -87.5561 169° South 190 219 15,000  Level Chicago Center
Wed 06:30:23 PM 40.3003 -87.5447 170° South 187 215 15,000  Level Chicago Center
Wed 06:31:25 PM 40.2506 -87.5244 163° South 187 215 15,000  Level Chicago Center
Wed 06:32:27 PM 40.2000 -87.5083 166° South 188 216 15,000  Level Chicago Center
Wed 06:33:30 PM 40.1483 -87.4950 169° South 189 217 15,000  Level Chicago Center
Wed 06:34:15 PM 40.1036 -87.4819 167° South 187 215 15,000  Level Indianapolis Center
Wed 06:35:17 PM 40.0542 -87.4647 165° South 185 213 15,000  Level Indianapolis Center
Wed 06:36:19 PM 40.0053 -87.4444 162° South 184 212 15,000  Level Indianapolis Center
Wed 06:37:21 PM 39.9558 -87.4231 162° South 186 214 15,000  Level Indianapolis Center
Wed 06:38:23 PM 39.9089 -87.4025 161° South 183 211 15,000  Level Indianapolis Center
Wed 06:39:25 PM 39.8506 -87.3822 165° South 181 208 15,000  Level Indianapolis Center
Wed 06:40:27 PM 39.8025 -87.3619 162° South 182 209 15,000  Level Indianapolis Center
Wed 06:41:29 PM 39.7525 -87.3428 164° South 185 213 15,000  Level Indianapolis Center
Wed 06:42:31 PM 39.7039 -87.3250 164° South 183 211 15,000  Level Indianapolis Center
Wed 06:43:33 PM 39.6547 -87.3033 161° South 185 213 15,000  Level Indianapolis Center
Wed 06:44:35 PM 39.5969 -87.2811 163° South 183 211 15,000  Level Indianapolis Center
Wed 06:45:37 PM 39.5483 -87.2628 164° South 183 211 15,000  Level Indianapolis Center
Wed 06:46:39 PM 39.4997 -87.2444 164° South 183 211 15,000  Level Indianapolis Center
Wed 06:47:41 PM 39.4492 -87.2311 168° South 184 212 15,000  Level Indianapolis Center
Wed 06:48:43 PM 39.4008 -87.2139 165° South 183 211 15,000  Level Indianapolis Center
Wed 06:49:46 PM 39.3400 -87.1886 162° South 190 219 15,000  Level Indianapolis Center
Wed 06:50:48 PM 39.2914 -87.1717 165° South 185 213 15,000  Level Indianapolis Center
Wed 06:51:50 PM 39.2408 -87.1553 166° South 187 215 15,000  Level Indianapolis Center
Wed 06:52:52 PM 39.1906 -87.1411 168° South 186 214 15,000  Level Indianapolis Center
Wed 06:53:54 PM 39.1406 -87.1278 168° South 184 212 15,000  Level Indianapolis Center
Wed 06:54:56 PM 39.0828 -87.1133 169° South 185 213 15,000  Level Indianapolis Center
Wed 06:55:58 PM 39.0314 -87.0978 167° South 186 214 15,000  Level Indianapolis Center
Wed 06:57:00 PM 38.9797 -87.0792 164° South 190 219 15,000  Level Indianapolis Center
Wed 06:58:02 PM 38.9294 -87.0619 165° South 187 215 15,000  Level Indianapolis Center
Wed 06:59:04 PM 38.8781 -87.0436 164° South 191 220 15,000 -48 Level Indianapolis Center
Wed 07:00:06 PM 38.8272 -87.0269 166° South 188 216 14,900 -48 Descending Indianapolis Center
Wed 07:01:08 PM 38.7656 -87.0058 165° South 189 217 14,900  Level Indianapolis Center
Wed 07:02:10 PM 38.7136 -86.9925 169° South 189 217 14,900  Level Indianapolis Center
Wed 07:03:12 PM 38.6622 -86.9792 169° South 188 216 14,900  Level Indianapolis Center
Wed 07:04:14 PM 38.6103 -86.9664 169° South 189 217 14,900 48 Level Indianapolis Center
Wed 07:05:16 PM 38.5581 -86.9536 169° South 190 219 15,000  Climbing Indianapolis Center
Wed 07:06:18 PM 38.5061 -86.9414 170° South 189 217 14,900 -48 Descending Indianapolis Center
Wed 07:07:20 PM 38.4542 -86.9278 168° South 189 217 14,900  Level Indianapolis Center
Wed 07:08:22 PM 38.4017 -86.9139 168° South 190 219 14,900  Level Indianapolis Center
Wed 07:09:25 PM 38.3381 -86.9003 170° South 191 220 14,900 48 Level Indianapolis Center
Wed 07:10:27 PM 38.2853 -86.8942 175° South 187 215 15,000  Climbing Indianapolis Center
Wed 07:11:29 PM 38.2325 -86.8878 175° South 188 216 14,900  Descending Indianapolis Center
Wed 07:12:31 PM 38.1797 -86.8806 174° South 189 217 15,000 48 Climbing Indianapolis Center
Wed 07:13:33 PM 38.1272 -86.8672 169° South 190 219 15,000 -48 Level Indianapolis Center
Wed 07:14:35 PM 38.0747 -86.8478 164° South 195 224 14,900 -48 Descending Indianapolis Center
Wed 07:15:37 PM 38.0222 -86.8258 162° South 197 227 14,900  Level Indianapolis Center
Wed 07:16:39 PM 37.9711 -86.8036 161° South 194 223 14,900  Level Indianapolis Center
Wed 07:17:41 PM 37.9094 -86.7742 159° South 197 227 14,900  Level Indianapolis Center
Wed 07:18:43 PM 37.8575 -86.7497 160° South 198 228 14,900  Level Indianapolis Center
Wed 07:19:45 PM 37.8056 -86.7267 161° South 197 227 14,900 48 Level Indianapolis Center
Wed 07:20:47 PM 37.7531 -86.7003 158° South 202 232 15,000  Climbing Indianapolis Center
Wed 07:21:49 PM 37.7006 -86.6756 160° South 200 230 14,900 -48 Descending Indianapolis Center
Wed 07:22:51 PM 37.6464 -86.6572 165° South 201 231 14,900 -97 Level Indianapolis Center
Wed 07:23:53 PM 37.5919 -86.6400 166° South 201 231 14,700 -532 Descending Indianapolis Center
Wed 07:24:55 PM 37.5278 -86.6283 172° South 218 251 13,800 -780 Descending Indianapolis Center
Wed 07:25:56 PM 37.4644 -86.6161 171° South 226 260 13,100 -829 Descending Indianapolis Center
Wed 07:26:58 PM 37.3917 -86.6058 174° South 222 255 12,100 -919 Descending Indianapolis Center
Wed 07:28:00 PM 37.3275 -86.5939 172° South 230 265 11,200 -968 Descending Indianapolis Center
Wed 07:29:02 PM 37.2642 -86.5836 173° South 229 264 10,100 -774 Descending Indianapolis Center
Wed 07:30:04 PM 37.2031 -86.5761 174° South 220 253 9,600 -823 Descending Indianapolis Center
Wed 07:31:06 PM 37.1411 -86.5667 173° South 222 255 8,400 -1,125 Descending Indianapolis Center
Wed 07:31:56 PM 37.0903 -86.5575 172° South 221 254 7,500 -927 Descending Memphis Center
Wed 07:32:56 PM 37.0250 -86.5372 166° South 221 254 6,700 -700 Descending Memphis Center
Wed 07:33:56 PM 36.9706 -86.5269 171° South 221 254 6,100 -350 Descending Memphis Center
Wed 07:34:56 PM 36.9181 -86.5114 167° South 210 242 6,000 -50 Descending Memphis Center
Wed 07:35:56 PM 36.8656 -86.5008 171° South 192 221 6,000 50 Level Memphis Center
Wed 07:36:56 PM 36.8156 -86.4981 177° South 187 215 6,100 -250 Climbing Memphis Center
Wed 07:37:56 PM 36.7631 -86.4850 169° South 187 215 5,500 -800 Descending Memphis Center
Wed 07:38:56 PM 36.7064 -86.4722 170° South 200 230 4,500 -850 Descending Memphis Center
Wed 07:39:56 PM 36.6583 -86.4694 177° South 187 215 3,800 -1,000 Descending Memphis Center
Wed 07:40:56 PM 36.6192 -86.4792 191° South 167 192 2,500 -800 Descending Memphis Center
Wed 07:41:56 PM 36.5878 -86.4806 182° South 141 162 2,200 -150 Descending Memphis Center
Wed 07:42:56 PM 36.5522 -86.4744 172° South 129 148 2,200 1,400 Level Memphis Center
Wed 07:43:56 PM 36.5167 -86.4711 176° South 129 148 5,000 1,400 Climbing Memphis Center
Wed 07:44:56 PM 36.4789 -86.4650 173° South 129 148 5,000  Level Memphis Center
Wed 07:45:56 PM 36.4433 -86.4617 176° South 129 148 5,000  Level Memphis Center
Wed 07:46:56 PM 36.4289 -86.4597 174° South 129 148 5,000  Level Memphis Center
Wed 07:48:56 PM 36.4289 -86.4597 238° Southwest 129 148 5,000  Level Memphis Center
Wed 07:50:56 PM 36.4289 -86.4597 238° Southwest 129 148 5,000  Level Memphis Center

Login

Don't have an account? Register now (free) for customized features, flight alerts, and more!